Date,TemperatureHighF,TemperatureAvgF,TemperatureLowF,DewpointHighF,DewpointAvgF,DewpointLowF,HumidityHigh,HumidityAvg,HumidityLow,PressureMaxIn,PressureMinIn,WindSpeedMaxMPH,WindSpeedAvgMPH,GustSpeedMaxMPH,PrecipitationSumIn
2013-2-1,38.1,29.0,22.3,22.7,14.7,7.0,67,56,31,30.54,30.32,7,1,8,0.00
2013-2-2,53.1,41.1,27.7,38.6,31.6,-99.9,87,71,46,30.32,30.14,12,-1,13,0.02
2013-2-3,54.8,45.4,37.3,35.5,31.2,26.0,87,60,36,30.20,30.11,16,1,16,0.00
2013-2-4,56.7,44.7,36.7,44.5,34.8,28.6,90,69,40,30.11,29.91,16,2,16,0.07
2013-2-5,64.7,50.9,42.3,50.8,45.0,40.8,98,82,49,30.06,29.92,8,1,9,0.00
2013-2-6,61.2,51.3,38.4,46.7,43.0,37.4,98,75,55,30.20,30.04,12,1,14,0.00
2013-2-7,68.8,58.6,49.4,55.7,50.0,39.6,95,74,57,30.04,29.86,10,1,11,0.40
2013-2-8,56.9,44.8,34.9,55.8,40.4,31.0,97,84,70,30.31,29.88,14,2,14,0.48
2013-2-9,51.2,42.0,29.4,40.0,34.3,27.9,95,75,58,30.32,30.05,11,1,11,0.01
2013-2-10,60.5,55.4,50.6,58.2,49.5,38.0,97,82,56,30.05,29.73,15,3,16,0.97
2013-2-11,59.0,50.6,45.0,54.5,34.6,28.5,90,55,32,30.20,29.95,11,0,11,0.00
2013-2-12,51.6,46.6,40.6,41.4,37.3,33.6,93,71,54,30.15,29.78,12,2,12,0.04
2013-2-13,44.3,40.9,37.5,42.0,38.4,35.6,96,91,80,30.03,29.77,7,1,8,0.07
2013-2-14,60.9,47.7,35.0,42.3,36.8,32.4,97,70,35,30.08,30.00,19,3,19,0.01
2013-2-15,55.7,45.5,35.6,40.5,33.5,26.2,92,65,35,30.20,30.05,12,1,12,0.00
2013-2-16,40.6,35.1,27.9,28.5,21.2,18.2,78,57,42,30.27,30.19,14,1,14,0.00
2013-2-17,56.9,43.6,30.4,32.2,25.9,21.0,71,51,33,30.28,30.08,16,3,17,0.00
2013-2-18,57.2,51.2,42.8,52.1,43.6,32.1,95,76,56,30.10,29.76,28,6,28,1.11
2013-2-19,50.4,41.6,32.7,41.3,29.1,22.5,85,63,34,30.28,29.95,17,1,17,0.00
2013-2-20,37.1,33.2,30.7,26.4,19.1,13.7,78,56,43,30.36,30.18,14,2,14,0.01
2013-2-21,46.5,38.7,32.7,44.9,32.5,23.7,96,79,50,30.20,29.75,13,2,17,0.74
2013-2-22,50.0,42.1,35.8,41.5,38.6,33.1,98,88,69,30.09,29.88,7,1,10,0.01
2013-2-23,53.6,40.5,30.3,33.1,30.5,27.9,91,70,40,30.07,29.95,9,1,9,0.00
2013-2-24,59.3,43.7,29.6,34.4,31.1,27.0,92,64,37,30.11,29.90,13,1,13,0.00
2013-2-25,59.1,52.8,42.2,54.7,42.0,28.0,96,68,49,29.91,29.31,16,3,16,0.55
2013-2-26,53.5,44.2,40.9,51.8,38.3,34.0,94,80,70,29.83,29.33,24,8,25,0.00
2013-2-27,45.7,42.0,39.5,37.1,33.9,30.1,77,73,62,29.98,29.82,18,4,19,0.00
2013-2-28,43.3,38.7,32.9,31.3,29.1,27.0,83,68,57,30.11,29.98,9,1,9,0.00